METAR UND TAF INFORMATION
LTBA 111550Z 05012KT 020V080 CAVOK 29/14 Q1014 NOSIG

 FLUGHAFENKARTE

 RUNWAY INFORMATION
Runway 05 Runway length 8530 ft Runway width 197 ft
Runway elevation 93 ft Runway displaced threshold 492 ft Runway heading 59
Runway 23 Runway length 8530 ft Runway width 197 ft
Runway elevation 90 ft Runway displaced threshold 0 ft Runway heading 239
Runway 17L Runway length 9843 ft Runway width 148 ft
Runway elevation 157 ft Runway displaced threshold 0 ft Runway heading 178
Runway 35R Runway length 9843 ft Runway width 148 ft
Runway elevation 100 ft Runway displaced threshold 0 ft Runway heading 358
Runway 17R Runway length 9843 ft Runway width 148 ft
Runway elevation 163 ft Runway displaced threshold 0 ft Runway heading 178
Runway 35L Runway length 9843 ft Runway width 148 ft
Runway elevation 102 ft Runway displaced threshold 0 ft Runway heading 358

 AIRPORT FREQUENCIES
Type APP Name YESILKOY A Frequency 120.5 MHZ
Type ATIS Name ATIS Frequency 128.2 MHZ
Type CLD Name YESILKOY D Frequency 121.7 MHZ
Type GND Name YESILKOY G Frequency 121.8 MHZ
Type RMP Name YESILKOY R Frequency 121.9 MHZ
Type TWR Name YESILKOY T Frequency 118.1 MHZ

 AIRPORT NEAR NAVIGATION AIDS
Type VORTAC Name Istanbul Frequency 112500 KHZ